createdAt,value
2019-02-02T00:01:55.008Z,20.10
2019-02-02T00:04:24.189Z,21.97
2019-02-02T00:06:52.843Z,21.87
2019-02-02T00:09:21.521Z,22.27
2019-02-02T00:11:50.185Z,21.02
2019-02-02T00:14:18.839Z,21.55
2019-02-02T00:16:48.176Z,17.90
2019-02-02T00:19:16.590Z,22.30
2019-02-02T00:21:45.242Z,19.35
2019-02-02T00:24:13.936Z,20.20
2019-02-02T00:26:42.593Z,21.07
2019-02-02T00:29:11.249Z,18.75
2019-02-02T00:31:39.989Z,20.00
2019-02-02T00:34:08.674Z,21.00
2019-02-02T00:36:37.361Z,19.75
2019-02-02T00:39:08.224Z,17.98
2019-02-02T00:41:36.968Z,18.50
2019-02-02T00:44:05.846Z,20.17
2019-02-02T00:46:34.776Z,18.50
2019-02-02T00:49:03.926Z,18.60
2019-02-02T00:51:32.880Z,18.42
2019-02-02T00:54:01.917Z,18.85
2019-02-02T00:56:30.729Z,17.80
2019-02-02T00:58:59.785Z,18.05
2019-02-02T01:01:28.081Z,18.05
2019-02-02T01:03:57.019Z,18.12
2019-02-02T01:06:26.033Z,17.48
2019-02-02T01:08:54.794Z,16.87
2019-02-02T01:11:23.451Z,17.35
2019-02-02T01:13:52.135Z,16.75
2019-02-02T01:16:20.876Z,17.95
2019-02-02T01:18:49.620Z,17.95
2019-02-02T01:21:18.268Z,14.00
2019-02-02T01:23:46.601Z,16.25
2019-02-02T01:26:15.261Z,15.78
2019-02-02T01:28:43.907Z,16.20
2019-02-02T01:31:12.576Z,18.20
2019-02-02T01:33:41.248Z,18.90
2019-02-02T01:36:10.157Z,16.42
2019-02-02T01:38:39.154Z,18.65
2019-02-02T01:41:07.818Z,19.23
2019-02-02T01:43:36.481Z,13.62
2019-02-02T01:46:04.844Z,15.13
2019-02-02T01:48:33.602Z,16.80
2019-02-02T01:51:02.513Z,16.35
2019-02-02T01:53:31.597Z,16.87
2019-02-02T01:56:00.258Z,16.23
2019-02-02T01:58:28.932Z,14.95
2019-02-02T02:00:57.598Z,14.93
2019-02-02T02:03:26.565Z,15.58
2019-02-02T02:05:54.875Z,14.87
2019-02-02T02:08:23.525Z,15.45
2019-02-02T02:10:52.227Z,15.78
2019-02-02T02:13:20.962Z,16.75
2019-02-02T02:15:49.635Z,17.40
2019-02-02T02:18:18.362Z,16.15
2019-02-02T02:20:47.026Z,16.75
2019-02-02T02:23:16.001Z,16.70
2019-02-02T02:25:44.667Z,16.00
2019-02-02T02:28:13.360Z,15.68
2019-02-02T02:30:42.024Z,16.00
2019-02-02T02:33:11.791Z,15.60
2019-02-02T02:35:40.466Z,15.72
2019-02-02T02:38:09.150Z,15.83
2019-02-02T02:40:37.822Z,15.32
2019-02-02T02:43:06.482Z,16.48
2019-02-02T02:45:35.184Z,14.93
2019-02-02T02:48:03.887Z,14.18
2019-02-02T02:50:32.163Z,15.72
2019-02-02T02:53:00.850Z,14.83
2019-02-02T02:55:29.597Z,16.50
2019-02-02T02:57:58.245Z,15.75
2019-02-02T03:00:27.496Z,15.20
2019-02-02T03:02:56.289Z,16.37
2019-02-02T03:05:25.115Z,15.30
2019-02-02T03:07:53.838Z,16.35
2019-02-02T03:10:23.688Z,13.25
2019-02-02T03:12:52.159Z,16.12
2019-02-02T03:15:20.908Z,18.62
2019-02-02T03:17:49.733Z,15.60
2019-02-02T03:20:18.751Z,16.93
2019-02-02T03:22:47.390Z,16.07
2019-02-02T03:25:21.170Z,16.93
2019-02-02T03:27:50.128Z,17.12
2019-02-02T03:30:19.700Z,15.00
2019-02-02T03:32:48.372Z,12.73
2019-02-02T03:35:17.586Z,15.03
2019-02-02T03:37:46.262Z,14.45
2019-02-02T03:40:16.861Z,18.45
2019-02-02T03:42:45.635Z,14.28
2019-02-02T03:45:16.245Z,15.05
2019-02-02T03:47:44.913Z,16.12
2019-02-02T03:50:13.571Z,16.00
2019-02-02T03:52:42.245Z,13.62
2019-02-02T03:55:11.641Z,11.80
2019-02-02T03:57:39.939Z,13.85
2019-02-02T04:00:14.164Z,13.05
2019-02-02T04:02:42.803Z,14.95
2019-02-02T04:05:14.190Z,14.30
2019-02-02T04:07:42.858Z,14.83
2019-02-02T04:10:11.686Z,15.43
2019-02-02T04:12:40.455Z,15.10
2019-02-02T04:15:09.213Z,14.25
2019-02-02T04:17:37.873Z,14.93
2019-02-02T04:20:07.277Z,14.33
2019-02-02T04:22:35.989Z,14.55
2019-02-02T04:25:05.713Z,15.45
2019-02-02T04:27:34.376Z,15.50
2019-02-02T04:30:03.032Z,16.05
2019-02-02T04:32:31.749Z,15.15
2019-02-02T04:35:00.409Z,17.12
2019-02-02T04:37:29.120Z,17.48
2019-02-02T04:39:57.791Z,13.85
2019-02-02T04:42:26.064Z,16.85
2019-02-02T04:44:54.773Z,17.62
2019-02-02T04:47:23.428Z,16.60
2019-02-02T04:49:52.101Z,16.75
2019-02-02T04:52:20.765Z,17.45
2019-02-02T04:54:49.510Z,17.95
2019-02-02T04:57:18.192Z,18.70
2019-02-02T04:59:46.870Z,16.17
2019-02-02T05:02:15.140Z,16.90
2019-02-02T05:04:43.815Z,18.70
2019-02-02T05:07:12.500Z,17.12
2019-02-02T05:09:41.165Z,18.60
2019-02-02T05:12:09.827Z,16.97
2019-02-02T05:14:38.476Z,17.42
2019-02-02T05:17:07.153Z,19.90
2019-02-02T05:19:35.851Z,18.70
2019-02-02T05:22:04.505Z,17.45
2019-02-02T05:24:32.793Z,17.23
2019-02-02T05:27:01.469Z,18.02
2019-02-02T05:29:40.761Z,18.00
2019-02-02T05:32:00.853Z,19.15
2019-02-02T05:34:29.621Z,18.10
2019-02-02T05:36:58.265Z,19.23
2019-02-02T05:39:27.452Z,21.10
2019-02-02T05:41:56.422Z,19.62
2019-02-02T05:44:24.721Z,16.48
2019-02-02T05:46:53.427Z,18.52
2019-02-02T05:49:22.114Z,21.30
2019-02-02T05:51:50.774Z,20.02
2019-02-02T05:54:19.454Z,21.30
2019-02-02T05:56:48.113Z,20.62
2019-02-02T05:59:16.788Z,19.10
2019-02-02T06:01:45.629Z,19.55
2019-02-02T06:04:14.305Z,30.77
2019-02-02T06:06:42.576Z,20.27
2019-02-02T06:09:11.592Z,19.17
2019-02-02T06:11:40.254Z,21.02
2019-02-02T06:14:08.941Z,20.75
2019-02-02T06:16:37.609Z,25.17
2019-02-02T06:19:06.267Z,21.05
2019-02-02T06:21:34.923Z,21.62
2019-02-02T06:24:03.846Z,24.70
2019-02-02T06:26:32.509Z,19.05
2019-02-02T06:29:00.783Z,20.72
2019-02-02T06:31:29.454Z,30.20
2019-02-02T06:33:58.154Z,32.53
2019-02-02T06:36:27.129Z,29.92
2019-02-02T06:38:56.229Z,23.27
2019-02-02T06:41:25.225Z,23.13
2019-02-02T06:43:54.281Z,22.40
2019-02-02T06:46:23.279Z,22.52
2019-02-02T06:48:52.079Z,20.17
2019-02-02T06:51:20.379Z,22.93
2019-02-02T06:53:49.078Z,25.00
2019-02-02T06:56:17.762Z,24.02
2019-02-02T06:58:47.004Z,24.95
2019-02-02T07:01:15.648Z,22.58
2019-02-02T07:03:44.307Z,22.27
2019-02-02T07:06:13.010Z,22.73
2019-02-02T07:08:42.211Z,23.20
2019-02-02T07:11:10.966Z,21.30
2019-02-02T07:13:40.057Z,22.60
2019-02-02T07:16:08.869Z,22.70
2019-02-02T07:18:37.854Z,22.70
2019-02-02T07:21:06.955Z,24.87
2019-02-02T07:23:36.201Z,24.20
2019-02-02T07:26:05.250Z,24.80
2019-02-02T07:28:34.065Z,23.07
2019-02-02T07:31:02.917Z,20.77
2019-02-02T07:33:31.534Z,19.48
2019-02-02T07:36:00.431Z,23.03
2019-02-02T07:38:29.291Z,23.38
2019-02-02T07:40:58.360Z,24.00
2019-02-02T07:43:27.550Z,21.40
2019-02-02T07:45:56.500Z,22.10
2019-02-02T07:48:25.299Z,21.40
2019-02-02T07:50:54.304Z,18.97
2019-02-02T07:53:23.483Z,18.73
2019-02-02T07:55:52.020Z,23.10
2019-02-02T07:58:20.950Z,24.02
2019-02-02T08:00:50.136Z,23.43
2019-02-02T08:03:19.360Z,23.90
2019-02-02T08:05:48.363Z,22.77
2019-02-02T08:08:17.552Z,20.27
2019-02-02T08:10:46.454Z,20.60
2019-02-02T08:13:15.569Z,21.62
2019-02-02T08:15:44.481Z,14.27
2019-02-02T08:18:13.175Z,20.70
2019-02-02T08:20:42.392Z,19.47
2019-02-02T08:23:11.480Z,25.47
2019-02-02T08:25:40.668Z,23.50
2019-02-02T08:28:09.577Z,19.60
2019-02-02T08:30:38.379Z,20.47
2019-02-02T08:33:07.468Z,22.87
2019-02-02T08:35:36.476Z,22.83
2019-02-02T08:38:05.224Z,17.53
2019-02-02T08:40:33.490Z,21.33
2019-02-02T08:43:02.202Z,22.03
2019-02-02T08:45:30.889Z,24.47
2019-02-02T08:47:59.537Z,21.57
2019-02-02T08:50:33.457Z,23.03
2019-02-02T08:53:02.201Z,21.97
2019-02-02T08:55:30.901Z,62.53
2019-02-02T08:57:59.597Z,57.07
2019-02-02T09:00:28.285Z,27.57
2019-02-02T09:02:56.700Z,36.33
2019-02-02T09:05:25.353Z,24.53
2019-02-02T09:07:54.463Z,24.40
2019-02-02T09:10:24.840Z,26.10
2019-02-02T09:12:53.512Z,28.60
2019-02-02T09:15:22.176Z,29.20
2019-02-02T09:17:50.852Z,27.20
2019-02-02T09:20:19.614Z,26.47
2019-02-02T09:22:47.982Z,21.10
2019-02-02T09:25:16.630Z,25.57
2019-02-02T09:27:45.290Z,27.70
2019-02-02T09:30:19.144Z,29.67
2019-02-02T09:32:47.907Z,29.97
2019-02-02T09:35:16.567Z,27.60
2019-02-02T09:37:46.293Z,27.00
2019-02-02T09:40:16.336Z,28.13
2019-02-02T09:42:45.093Z,27.33
2019-02-02T09:45:15.072Z,24.73
2019-02-02T09:47:43.453Z,26.33
2019-02-02T09:50:15.232Z,26.07
2019-02-02T09:52:44.010Z,21.13
2019-02-02T09:55:14.493Z,18.10
2019-02-02T09:57:43.185Z,15.30
2019-02-02T10:00:15.446Z,14.37
2019-02-02T10:02:46.055Z,14.83
2019-02-02T10:05:14.609Z,16.63
2019-02-02T10:07:43.317Z,10.50
2019-02-02T10:10:15.902Z,12.93
2019-02-02T10:12:44.845Z,12.47
2019-02-02T10:15:13.822Z,11.37
2019-02-02T10:17:42.472Z,15.17
2019-02-02T10:20:13.605Z,16.73
2019-02-02T10:22:42.679Z,13.30
2019-02-02T10:25:12.821Z,13.07
2019-02-02T10:27:41.480Z,14.80
2019-02-02T10:30:23.645Z,10.93
2019-02-02T10:32:52.408Z,11.70
2019-02-02T10:35:20.693Z,12.73
2019-02-02T10:37:49.886Z,10.57
2019-02-02T10:40:18.572Z,10.23
2019-02-02T10:42:47.223Z,8.90
2019-02-02T10:45:15.910Z,8.30
2019-02-02T10:47:44.578Z,6.53
2019-02-02T10:50:14.390Z,5.50
2019-02-02T10:52:43.050Z,6.67
2019-02-02T10:55:12.228Z,4.77
2019-02-02T10:57:40.518Z,5.80
2019-02-02T11:00:13.239Z,9.37
2019-02-02T11:02:41.886Z,11.60
2019-02-02T11:05:10.785Z,7.13
2019-02-02T11:07:39.559Z,7.10
2019-02-02T11:10:11.015Z,8.93
2019-02-02T11:12:39.763Z,10.10
2019-02-02T11:15:10.712Z,14.77
2019-02-02T11:17:39.381Z,10.10
2019-02-02T11:20:09.455Z,26.57
2019-02-02T11:22:38.175Z,13.07
2019-02-02T11:25:07.790Z,13.50
2019-02-02T11:27:36.477Z,13.43
2019-02-02T11:30:07.610Z,14.00
2019-02-02T11:32:37.169Z,11.83
2019-02-02T11:35:07.128Z,10.77
2019-02-02T11:37:35.830Z,8.10
2019-02-02T11:40:05.103Z,7.17
2019-02-02T11:42:33.400Z,8.97
2019-02-02T11:45:02.072Z,8.50
2019-02-02T11:47:30.726Z,6.90
2019-02-02T11:49:59.384Z,5.93
2019-02-02T11:52:28.421Z,5.80
2019-02-02T11:54:57.075Z,5.50
2019-02-02T11:57:25.729Z,5.40
2019-02-02T11:59:54.702Z,5.00
2019-02-02T12:02:22.986Z,4.80
2019-02-02T12:04:51.251Z,4.60
2019-02-02T12:07:19.971Z,4.07
2019-02-02T12:09:48.648Z,5.10
2019-02-02T12:12:17.337Z,4.13
2019-02-02T12:14:46.417Z,4.00
2019-02-02T12:17:15.072Z,3.80
2019-02-02T12:19:43.789Z,3.70
2019-02-02T12:22:12.662Z,3.40
2019-02-02T12:24:40.929Z,3.27
2019-02-02T12:27:09.630Z,4.67
2019-02-02T12:29:38.333Z,5.60
2019-02-02T12:32:07.231Z,5.00
2019-02-02T12:34:35.893Z,62.03
2019-02-02T12:37:04.626Z,8.27
2019-02-02T12:39:33.276Z,5.10
2019-02-02T12:42:01.945Z,3.20
2019-02-02T12:44:30.576Z,2.37
2019-02-02T12:46:58.865Z,2.13
2019-02-02T12:49:27.642Z,2.40
2019-02-02T12:51:56.669Z,2.00
2019-02-02T12:54:25.409Z,1.83
2019-02-02T12:56:54.077Z,5.27
2019-02-02T12:59:23.804Z,14.33
2019-02-02T13:01:52.493Z,2.60
2019-02-02T13:04:21.136Z,2.77
2019-02-02T13:06:52.130Z,4.07
2019-02-02T13:09:20.232Z,4.30
2019-02-02T13:11:48.964Z,4.80
2019-02-02T13:14:17.668Z,4.47
2019-02-02T13:16:46.339Z,3.77
2019-02-02T13:19:15.366Z,3.23
2019-02-02T13:21:44.117Z,1.70
2019-02-02T13:24:12.829Z,2.53
2019-02-02T13:26:41.469Z,2.70
2019-02-02T13:29:09.930Z,3.10
2019-02-02T13:31:38.612Z,2.67
2019-02-02T13:34:07.551Z,2.70
2019-02-02T13:36:36.214Z,2.10
2019-02-02T13:39:08.557Z,3.03
2019-02-02T13:41:37.189Z,2.60
2019-02-02T13:44:05.845Z,2.53
2019-02-02T13:46:34.820Z,2.37
2019-02-02T13:49:03.474Z,1.93
2019-02-02T13:51:31.751Z,2.50
2019-02-02T13:54:00.435Z,2.97
2019-02-02T13:56:29.079Z,2.20
2019-02-02T13:58:57.881Z,1.83
2019-02-02T14:01:27.073Z,2.10
2019-02-02T14:03:55.799Z,1.83
2019-02-02T14:06:24.739Z,1.90
2019-02-02T14:08:53.441Z,2.33
2019-02-02T14:11:22.123Z,2.63
2019-02-02T14:13:50.416Z,2.23
2019-02-02T14:16:19.333Z,3.00
2019-02-02T14:18:48.156Z,2.60
2019-02-02T14:21:16.805Z,2.40
2019-02-02T14:23:45.473Z,4.27
2019-02-02T14:26:14.115Z,4.23
2019-02-02T14:28:42.777Z,4.17
2019-02-02T14:31:11.420Z,3.90
2019-02-02T14:33:40.067Z,2.37
2019-02-02T14:36:08.341Z,2.50
2019-02-02T14:38:37.005Z,2.30
2019-02-02T14:41:05.663Z,3.17
2019-02-02T14:43:34.309Z,2.37
2019-02-02T14:46:02.978Z,2.70
2019-02-02T14:48:32.272Z,3.70
2019-02-02T14:51:00.920Z,3.47
2019-02-02T14:53:29.569Z,2.83
2019-02-02T14:55:57.945Z,2.90
2019-02-02T14:58:26.217Z,3.77
2019-02-02T15:00:54.990Z,3.20
2019-02-02T15:03:25.765Z,3.40
2019-02-02T15:05:54.114Z,3.50
2019-02-02T15:08:22.755Z,2.83
2019-02-02T15:10:51.426Z,2.83
2019-02-02T15:13:20.065Z,3.00
2019-02-02T15:15:48.713Z,2.30
2019-02-02T15:18:16.992Z,2.70
2019-02-02T15:20:45.654Z,2.90
2019-02-02T15:23:14.325Z,4.33
2019-02-02T15:25:43.020Z,3.63
2019-02-02T15:28:11.709Z,3.87
2019-02-02T15:30:40.391Z,4.30
2019-02-02T15:33:09.114Z,5.30
2019-02-02T15:35:37.804Z,4.93
2019-02-02T15:38:06.522Z,4.37
2019-02-02T15:40:34.885Z,5.30
2019-02-02T15:43:03.586Z,6.90
2019-02-02T15:45:32.366Z,7.03
2019-02-02T15:48:01.061Z,6.93
2019-02-02T15:50:29.729Z,6.40
2019-02-02T15:52:58.662Z,6.00
2019-02-02T15:55:27.362Z,5.70
2019-02-02T15:57:56.046Z,5.70
2019-02-02T16:00:29.493Z,5.07
2019-02-02T16:02:58.148Z,6.10
2019-02-02T16:05:26.875Z,5.60
2019-02-02T16:07:56.487Z,6.30
2019-02-02T16:10:26.432Z,5.93
2019-02-02T16:12:55.517Z,6.73
2019-02-02T16:15:24.192Z,7.37
2019-02-02T16:17:53.170Z,7.33
2019-02-02T16:20:30.192Z,6.37
2019-02-02T16:22:58.885Z,6.63
2019-02-02T16:25:27.595Z,5.90
2019-02-02T16:27:56.258Z,7.40
2019-02-02T16:30:26.294Z,7.27
2019-02-02T16:32:54.950Z,7.77
2019-02-02T16:35:23.637Z,15.27
2019-02-02T16:37:52.378Z,15.30
2019-02-02T16:40:25.371Z,16.20
2019-02-02T16:42:54.150Z,15.77
2019-02-02T16:45:24.636Z,16.50
2019-02-02T16:47:53.191Z,17.90
2019-02-02T16:50:21.925Z,19.00
2019-02-02T16:52:50.620Z,19.00
2019-02-02T16:55:19.338Z,17.20
2019-02-02T16:57:49.089Z,18.23
2019-02-02T17:00:22.705Z,15.43
2019-02-02T17:02:51.651Z,14.80
2019-02-02T17:05:20.303Z,17.93
2019-02-02T17:07:49.049Z,17.60
2019-02-02T17:10:18.401Z,14.00
2019-02-02T17:12:47.134Z,17.67
2019-02-02T17:15:15.772Z,19.97
2019-02-02T17:17:44.497Z,19.67
2019-02-02T17:20:18.670Z,19.37
2019-02-02T17:22:47.385Z,19.67
2019-02-02T17:25:17.237Z,18.20
2019-02-02T17:27:46.532Z,20.83
2019-02-02T17:30:17.710Z,17.77
2019-02-02T17:32:46.401Z,15.60
2019-02-02T17:35:14.690Z,17.77
2019-02-02T17:37:43.369Z,19.07
2019-02-02T17:40:14.433Z,21.10
2019-02-02T17:42:43.572Z,21.10
2019-02-02T17:45:14.190Z,25.50
2019-02-02T17:47:42.852Z,23.73
2019-02-02T17:50:16.580Z,36.80
2019-02-02T17:52:45.344Z,21.20
2019-02-02T17:55:14.029Z,19.10
2019-02-02T17:57:42.430Z,19.17
2019-02-02T18:00:14.188Z,18.47
2019-02-02T18:02:43.009Z,18.70
2019-02-02T18:05:13.600Z,21.03
2019-02-02T18:07:42.624Z,18.93
2019-02-02T18:10:12.938Z,16.03
2019-02-02T18:12:41.681Z,16.07
2019-02-02T18:15:14.223Z,16.67
2019-02-02T18:17:43.214Z,14.33
2019-02-02T18:20:12.118Z,15.00
2019-02-02T18:22:40.821Z,18.23
2019-02-02T18:25:11.222Z,16.30
2019-02-02T18:27:39.868Z,21.43
2019-02-02T18:30:12.696Z,20.13
2019-02-02T18:32:41.522Z,19.20
2019-02-02T18:35:10.743Z,19.20
2019-02-02T18:37:39.493Z,20.13
2019-02-02T18:40:08.854Z,18.27
2019-02-02T18:42:37.133Z,18.33
2019-02-02T18:45:06.267Z,18.97
2019-02-02T18:47:34.912Z,19.77
2019-02-02T18:50:03.812Z,21.57
2019-02-02T18:52:32.619Z,23.33
2019-02-02T18:55:01.288Z,23.10
2019-02-02T18:57:30.030Z,21.90
2019-02-02T18:59:58.702Z,21.20
2019-02-02T19:02:27.374Z,19.50
2019-02-02T19:05:03.703Z,20.60
2019-02-02T19:07:27.270Z,22.10
2019-02-02T19:09:55.988Z,22.70
2019-02-02T19:12:24.689Z,22.27
2019-02-02T19:14:53.722Z,22.63
2019-02-02T19:17:22.449Z,22.60
2019-02-02T19:19:51.168Z,23.33
2019-02-02T19:22:19.852Z,23.47
2019-02-02T19:24:48.530Z,20.27
2019-02-02T19:27:16.804Z,23.00
2019-02-02T19:29:45.481Z,22.10
2019-02-02T19:32:14.153Z,23.83
2019-02-02T19:34:42.821Z,23.50
2019-02-02T19:37:11.468Z,23.87
2019-02-02T19:39:40.134Z,26.03
2019-02-02T19:42:08.815Z,24.93
2019-02-02T19:44:37.628Z,24.13
2019-02-02T19:47:15.756Z,20.57
2019-02-02T19:49:35.950Z,24.70
2019-02-02T19:52:04.717Z,27.67
2019-02-02T19:54:33.369Z,28.80
2019-02-02T19:57:02.046Z,26.20
2019-02-02T19:59:30.999Z,26.47
2019-02-02T20:01:59.935Z,27.77
2019-02-02T20:04:28.922Z,27.87
2019-02-02T20:06:57.778Z,25.07
2019-02-02T20:09:26.581Z,21.30
2019-02-02T20:11:55.386Z,26.17
2019-02-02T20:14:24.047Z,27.43
2019-02-02T20:16:52.703Z,27.90
2019-02-02T20:19:21.442Z,27.10
2019-02-02T20:21:50.109Z,26.73
2019-02-02T20:24:18.769Z,26.90
2019-02-02T20:26:47.559Z,27.07
2019-02-02T20:29:16.264Z,22.50
2019-02-02T20:31:44.546Z,23.70
2019-02-02T20:34:13.226Z,27.53
2019-02-02T20:36:41.899Z,25.40
2019-02-02T20:39:10.546Z,26.47
2019-02-02T20:41:39.213Z,24.93
2019-02-02T20:44:07.872Z,25.07
2019-02-02T20:46:36.725Z,28.27
2019-02-02T20:49:07.956Z,27.47
2019-02-02T20:51:35.877Z,23.13
2019-02-02T20:54:04.390Z,28.90
2019-02-02T20:56:33.138Z,29.93
2019-02-02T20:59:02.065Z,31.60
2019-02-02T21:01:31.082Z,30.00
2019-02-02T21:03:59.743Z,31.50
2019-02-02T21:06:28.419Z,30.63
2019-02-02T21:08:57.121Z,30.73
2019-02-02T21:11:25.847Z,28.47
2019-02-02T21:13:54.171Z,24.43
2019-02-02T21:16:22.486Z,27.87
2019-02-02T21:18:51.411Z,27.57
2019-02-02T21:21:20.112Z,27.67
2019-02-02T21:23:48.781Z,29.30
2019-02-02T21:26:17.725Z,27.57
2019-02-02T21:28:50.440Z,27.97
2019-02-02T21:31:16.816Z,28.67
2019-02-02T21:33:45.477Z,27.77
2019-02-02T21:36:13.844Z,24.63
2019-02-02T21:38:42.581Z,27.30
2019-02-02T21:41:11.313Z,28.50
2019-02-02T21:43:40.040Z,28.43
2019-02-02T21:46:08.697Z,29.27
2019-02-02T21:48:37.379Z,27.90
2019-02-02T21:51:06.096Z,27.13
2019-02-02T21:53:35.148Z,25.67
2019-02-02T21:56:03.881Z,24.60
2019-02-02T21:58:32.183Z,29.60
2019-02-02T22:01:01.206Z,29.67
2019-02-02T22:03:29.886Z,29.23
2019-02-02T22:05:58.520Z,28.20
2019-02-02T22:08:27.341Z,29.50
2019-02-02T22:10:56.001Z,29.60
2019-02-02T22:13:24.703Z,30.80
2019-02-02T22:15:53.356Z,28.37
2019-02-02T22:18:22.076Z,24.93
2019-02-02T22:20:50.401Z,29.13
2019-02-02T22:23:19.056Z,29.73
2019-02-02T22:25:47.700Z,30.50
2019-02-02T22:28:16.387Z,29.93
2019-02-02T22:30:45.058Z,30.47
2019-02-02T22:33:13.728Z,31.80
2019-02-02T22:35:43.449Z,32.50
2019-02-02T22:38:12.105Z,28.67
2019-02-02T22:40:40.821Z,23.90
2019-02-02T22:43:09.570Z,30.27
2019-02-02T22:45:38.300Z,29.63
2019-02-02T22:48:06.973Z,28.00
2019-02-02T22:50:35.641Z,27.77
2019-02-02T22:53:04.388Z,25.60
2019-02-02T22:55:33.041Z,26.97
2019-02-02T22:58:01.676Z,25.93
2019-02-02T23:00:57.162Z,23.63
2019-02-02T23:03:29.144Z,24.60
2019-02-02T23:06:39.206Z,23.63
2019-02-02T23:10:04.327Z,22.70
2019-02-02T23:12:52.581Z,23.23
2019-02-02T23:16:01.368Z,23.07
2019-02-02T23:18:30.016Z,22.70
2019-02-02T23:20:58.689Z,24.23
2019-02-02T23:23:27.415Z,24.93
2019-02-02T23:25:56.082Z,24.50
2019-02-02T23:28:24.753Z,21.30
2019-02-02T23:30:55.482Z,24.43
2019-02-02T23:33:23.773Z,23.50
2019-02-02T23:35:52.500Z,22.30
2019-02-02T23:38:21.158Z,23.53
2019-02-02T23:40:49.829Z,22.37
2019-02-02T23:43:18.497Z,22.67
2019-02-02T23:45:47.181Z,23.90
2019-02-02T23:48:15.860Z,21.50
2019-02-02T23:50:44.782Z,17.70
2019-02-02T23:53:13.536Z,21.87
2019-02-02T23:55:42.264Z,22.97
2019-02-02T23:58:10.931Z,20.53
